createdAt,value
2024-02-09T00:02:05.343Z,11.57
2024-02-09T00:04:52.669Z,14.20
2024-02-09T00:07:41.437Z,11.82
2024-02-09T00:10:29.451Z,12.38
2024-02-09T00:13:18.905Z,13.07
2024-02-09T00:16:06.773Z,11.82
2024-02-09T00:18:54.602Z,15.52
2024-02-09T00:21:42.547Z,15.00
2024-02-09T00:24:32.892Z,18.23
2024-02-09T00:27:20.511Z,12.27
2024-02-09T00:30:09.692Z,15.63
2024-02-09T00:33:01.143Z,11.20
2024-02-09T00:35:51.565Z,15.82
2024-02-09T00:38:41.286Z,15.02
2024-02-09T00:41:29.944Z,12.02
2024-02-09T00:44:18.480Z,11.95
2024-02-09T00:47:05.845Z,10.27
2024-02-09T00:49:53.092Z,9.57
2024-02-09T00:52:40.533Z,10.75
2024-02-09T00:55:32.887Z,10.27
2024-02-09T00:58:20.409Z,10.50
2024-02-09T01:01:10.667Z,10.15
2024-02-09T01:03:58.137Z,13.80
2024-02-09T01:06:45.938Z,10.63
2024-02-09T01:09:35.002Z,11.20
2024-02-09T01:12:41.175Z,12.93
2024-02-09T01:15:49.604Z,11.30
2024-02-09T01:18:55.339Z,18.98
2024-02-09T01:22:01.581Z,15.07
2024-02-09T01:25:08.167Z,15.38
2024-02-09T01:28:15.416Z,19.48
2024-02-09T01:31:21.204Z,11.65
2024-02-09T01:34:27.365Z,14.55
2024-02-09T01:37:33.324Z,15.23
2024-02-09T01:40:39.687Z,17.27
2024-02-09T01:43:45.856Z,12.18
2024-02-09T01:46:52.080Z,13.52
2024-02-09T01:50:00.823Z,11.30
2024-02-09T01:53:08.839Z,11.18
2024-02-09T01:56:14.705Z,10.77
2024-02-09T01:59:20.778Z,13.18
2024-02-09T02:02:26.828Z,16.17
2024-02-09T02:05:33.164Z,12.93
2024-02-09T02:08:39.444Z,9.82
2024-02-09T02:11:48.228Z,10.38
2024-02-09T02:14:54.335Z,18.85
2024-02-09T02:18:00.425Z,7.22
2024-02-09T02:21:06.222Z,9.70
2024-02-09T02:24:17.408Z,7.97
2024-02-09T02:27:23.515Z,11.30
2024-02-09T02:30:31.205Z,11.25
2024-02-09T02:33:37.130Z,9.00
2024-02-09T02:36:43.322Z,15.55
2024-02-09T02:39:50.139Z,15.77
2024-02-09T02:42:40.263Z,9.00
2024-02-09T02:45:29.221Z,11.75
2024-02-09T02:48:34.900Z,9.38
2024-02-09T02:51:40.915Z,11.82
2024-02-09T02:54:47.021Z,7.35
2024-02-09T02:57:52.860Z,8.93
2024-02-09T03:00:59.090Z,14.73
2024-02-09T03:04:08.000Z,6.30
2024-02-09T03:07:14.411Z,12.82
2024-02-09T03:10:04.332Z,7.15
2024-02-09T03:13:04.136Z,13.90
2024-02-09T03:15:54.931Z,8.40
2024-02-09T03:18:42.469Z,11.05
2024-02-09T03:21:36.683Z,12.35
2024-02-09T03:24:24.467Z,9.68
2024-02-09T03:27:11.884Z,9.38
2024-02-09T03:30:02.169Z,12.23
2024-02-09T03:32:50.508Z,12.32
2024-02-09T03:35:38.364Z,9.55
2024-02-09T03:38:28.009Z,9.35
2024-02-09T03:41:15.287Z,5.20
2024-02-09T03:44:06.612Z,14.10
2024-02-09T03:46:55.202Z,10.48
2024-02-09T03:49:43.523Z,9.90
2024-02-09T03:52:52.606Z,7.55
2024-02-09T03:55:44.176Z,10.23
2024-02-09T03:58:32.114Z,7.88
2024-02-09T04:01:24.589Z,10.35
2024-02-09T04:04:12.153Z,13.63
2024-02-09T04:07:00.092Z,6.18
2024-02-09T04:12:38.042Z,5.95
2024-02-09T04:15:26.797Z,4.15
2024-02-09T04:18:18.354Z,9.75
2024-02-09T04:21:05.885Z,7.88
2024-02-09T04:23:58.807Z,7.50
2024-02-09T04:26:46.292Z,4.50
2024-02-09T04:29:38.176Z,5.38
2024-02-09T04:32:25.613Z,7.80
2024-02-09T04:35:16.739Z,5.85
2024-02-09T04:38:11.147Z,3.67
2024-02-09T04:40:58.596Z,3.92
2024-02-09T04:43:45.983Z,3.17
2024-02-09T04:46:35.508Z,7.43
2024-02-09T04:49:23.374Z,6.85
2024-02-09T04:52:13.859Z,5.47
2024-02-09T04:55:01.400Z,5.05
2024-02-09T04:57:49.297Z,5.88
2024-02-09T05:00:37.003Z,4.25
2024-02-09T05:03:24.785Z,4.97
2024-02-09T05:06:12.766Z,4.20
2024-02-09T05:09:00.991Z,5.15
2024-02-09T05:11:51.296Z,3.38
2024-02-09T05:14:38.797Z,2.63
2024-02-09T05:17:27.428Z,7.13
2024-02-09T05:20:15.369Z,3.40
2024-02-09T05:23:03.646Z,5.75
2024-02-09T05:25:51.331Z,5.90
2024-02-09T05:28:41.084Z,3.38
2024-02-09T05:31:29.890Z,5.53
2024-02-09T05:34:17.774Z,3.30
2024-02-09T05:37:05.695Z,4.28
2024-02-09T05:39:53.582Z,2.63
2024-02-09T05:42:49.343Z,3.22
2024-02-09T05:45:50.761Z,5.13
2024-02-09T05:48:38.268Z,2.63
2024-02-09T05:51:26.157Z,5.28
2024-02-09T05:54:13.954Z,4.22
2024-02-09T05:57:01.636Z,3.40
2024-02-09T05:59:49.239Z,5.22
2024-02-09T06:02:38.548Z,2.22
2024-02-09T06:05:30.416Z,3.55
2024-02-09T06:08:18.151Z,2.25
2024-02-09T06:11:06.988Z,4.82
2024-02-09T06:13:54.482Z,4.32
2024-02-09T06:16:45.104Z,3.20
2024-02-09T06:19:35.781Z,1.30
2024-02-09T06:22:23.695Z,1.42
2024-02-09T06:25:12.364Z,4.55
2024-02-09T06:28:05.264Z,3.28
2024-02-09T06:30:53.541Z,2.95
2024-02-09T06:33:42.011Z,1.92
2024-02-09T06:36:31.255Z,4.55
2024-02-09T06:39:18.794Z,3.85
2024-02-09T06:42:08.658Z,2.45
2024-02-09T06:44:57.229Z,4.47
2024-02-09T06:47:47.778Z,3.03
2024-02-09T06:50:36.840Z,6.25
2024-02-09T06:53:24.518Z,4.07
2024-02-09T06:56:15.663Z,3.83
2024-02-09T06:59:06.135Z,2.05
2024-02-09T07:01:54.664Z,4.97
2024-02-09T07:04:42.113Z,3.10
2024-02-09T07:07:30.856Z,3.92
2024-02-09T07:10:19.630Z,2.28
2024-02-09T07:13:08.306Z,3.28
2024-02-09T07:15:57.983Z,3.38
2024-02-09T07:18:48.727Z,3.78
2024-02-09T07:21:40.856Z,9.82
2024-02-09T07:24:29.061Z,4.63
2024-02-09T07:27:19.831Z,5.05
2024-02-09T07:30:09.069Z,8.93
2024-02-09T07:32:56.924Z,3.13
2024-02-09T07:35:47.783Z,4.05
2024-02-09T07:38:37.399Z,7.43
2024-02-09T07:41:25.313Z,3.30
2024-02-09T07:44:13.753Z,3.40
2024-02-09T07:47:06.284Z,2.70
2024-02-09T07:49:58.217Z,5.40
2024-02-09T07:52:46.967Z,4.72
2024-02-09T07:55:34.647Z,4.85
2024-02-09T07:58:23.618Z,2.60
2024-02-09T08:01:12.749Z,4.22
2024-02-09T08:04:01.789Z,2.85
2024-02-09T08:06:50.259Z,3.78
2024-02-09T08:09:38.227Z,5.13
2024-02-09T08:12:25.685Z,3.65
2024-02-09T08:15:13.759Z,3.08
2024-02-09T08:18:03.901Z,6.40
2024-02-09T08:20:54.868Z,3.40
2024-02-09T08:23:43.278Z,6.63
2024-02-09T08:26:41.905Z,6.18
2024-02-09T08:29:37.641Z,5.75
2024-02-09T08:32:28.533Z,3.30
2024-02-09T08:35:16.705Z,3.80
2024-02-09T08:38:05.352Z,3.22
2024-02-09T08:40:53.977Z,5.05
2024-02-09T08:43:43.776Z,5.07
2024-02-09T08:46:34.925Z,3.42
2024-02-09T08:49:22.886Z,5.85
2024-02-09T08:52:14.934Z,4.97
2024-02-09T08:55:05.037Z,3.25
2024-02-09T08:57:52.643Z,6.38
2024-02-09T09:00:44.768Z,9.45
2024-02-09T09:03:38.313Z,3.65
2024-02-09T09:06:31.095Z,2.38
2024-02-09T09:09:18.694Z,3.25
2024-02-09T09:12:13.243Z,3.70
2024-02-09T09:15:04.673Z,6.95
2024-02-09T09:17:54.883Z,3.60
2024-02-09T09:20:44.918Z,5.80
2024-02-09T09:23:38.441Z,5.63
2024-02-09T09:26:40.537Z,2.83
2024-02-09T09:29:28.367Z,4.05
2024-02-09T09:32:15.822Z,5.78
2024-02-09T09:35:13.536Z,3.72
2024-02-09T09:38:01.078Z,2.85
2024-02-09T09:40:53.659Z,4.47
2024-02-09T09:43:41.925Z,3.60
2024-02-09T09:46:31.660Z,4.88
2024-02-09T09:49:20.323Z,5.35
2024-02-09T09:52:56.106Z,5.82
2024-02-09T09:55:46.728Z,7.07
2024-02-09T09:58:50.030Z,3.45
2024-02-09T10:01:40.192Z,2.00
2024-02-09T10:04:28.187Z,9.80
2024-02-09T10:07:20.829Z,3.47
2024-02-09T10:10:13.166Z,4.05
2024-02-09T10:13:15.532Z,2.53
2024-02-09T10:16:06.772Z,7.43
2024-02-09T10:18:55.645Z,5.75
2024-02-09T10:21:53.060Z,4.32
2024-02-09T10:24:51.263Z,5.55
2024-02-09T10:27:41.477Z,4.30
2024-02-09T10:30:32.321Z,3.63
2024-02-09T10:33:22.856Z,6.05
2024-02-09T10:36:12.974Z,5.15
2024-02-09T10:39:00.583Z,4.50
2024-02-09T10:41:51.030Z,5.40
2024-02-09T10:44:43.276Z,2.35
2024-02-09T10:47:31.753Z,5.18
2024-02-09T10:50:21.100Z,3.60
2024-02-09T10:53:13.345Z,5.63
2024-02-09T10:56:08.370Z,4.30
2024-02-09T10:59:03.045Z,2.72
2024-02-09T11:01:51.354Z,3.53
2024-02-09T11:04:39.238Z,2.38
2024-02-09T11:07:29.977Z,4.95
2024-02-09T11:10:29.432Z,3.45
2024-02-09T11:13:26.912Z,3.75
2024-02-09T11:16:18.671Z,3.97
2024-02-09T11:19:18.194Z,5.43
2024-02-09T11:22:10.364Z,3.67
2024-02-09T11:25:03.957Z,3.13
2024-02-09T11:27:52.927Z,2.28
2024-02-09T11:30:43.634Z,3.90
2024-02-09T11:33:32.417Z,2.28
2024-02-09T11:36:23.463Z,3.92
2024-02-09T11:39:11.649Z,6.95
2024-02-09T11:42:01.085Z,3.72
2024-02-09T11:44:49.755Z,5.25
2024-02-09T11:47:43.205Z,4.65
2024-02-09T11:50:32.924Z,1.63
2024-02-09T11:53:21.788Z,4.75
2024-02-09T11:56:11.674Z,4.57
2024-02-09T11:59:00.544Z,4.93
2024-02-09T12:01:49.466Z,3.08
2024-02-09T12:04:40.058Z,8.32
2024-02-09T12:07:27.750Z,4.57
2024-02-09T12:10:16.512Z,3.78
2024-02-09T12:13:03.957Z,5.57
2024-02-09T12:15:54.132Z,1.98
2024-02-09T12:18:48.075Z,7.78
2024-02-09T12:21:35.466Z,5.63
2024-02-09T12:24:31.125Z,4.93
2024-02-09T12:27:20.980Z,3.45
2024-02-09T12:30:11.630Z,5.22
2024-02-09T12:33:01.156Z,4.65
2024-02-09T12:35:49.326Z,7.05
2024-02-09T12:38:46.302Z,3.50
2024-02-09T12:41:34.878Z,5.38
2024-02-09T12:44:28.298Z,6.45
2024-02-09T12:47:15.973Z,4.93
2024-02-09T12:50:05.167Z,6.15
2024-02-09T12:52:53.352Z,3.17
2024-02-09T12:55:41.175Z,3.35
2024-02-09T12:58:28.774Z,5.22
2024-02-09T13:01:19.028Z,8.52
2024-02-09T13:04:07.372Z,4.47
2024-02-09T13:07:00.238Z,3.13
2024-02-09T13:09:48.285Z,5.90
2024-02-09T13:12:39.755Z,6.57
2024-02-09T13:15:30.220Z,4.30
2024-02-09T13:18:17.844Z,6.45
2024-02-09T13:21:05.466Z,3.47
2024-02-09T13:23:55.743Z,3.00
2024-02-09T13:26:44.818Z,4.25
2024-02-09T13:29:33.947Z,5.00
2024-02-09T13:32:21.824Z,6.47
2024-02-09T13:35:12.909Z,4.38
2024-02-09T13:38:00.576Z,6.20
2024-02-09T13:40:50.173Z,4.28
2024-02-09T13:43:38.354Z,6.90
2024-02-09T13:46:29.501Z,7.22
2024-02-09T13:49:18.101Z,4.53
2024-02-09T13:52:06.168Z,3.85
2024-02-09T13:54:56.146Z,5.57
2024-02-09T13:57:49.081Z,5.20
2024-02-09T14:00:37.925Z,5.80
2024-02-09T14:03:28.758Z,3.72
2024-02-09T14:06:20.095Z,4.25
2024-02-09T14:09:07.749Z,3.67
2024-02-09T14:11:55.782Z,2.55
2024-02-09T14:14:43.189Z,4.43
2024-02-09T14:17:33.469Z,4.50
2024-02-09T14:20:24.827Z,3.63
2024-02-09T14:23:12.750Z,3.63
2024-02-09T14:26:01.607Z,3.22
2024-02-09T14:28:49.792Z,4.75
2024-02-09T14:31:37.758Z,5.85
2024-02-09T14:34:25.513Z,4.85
2024-02-09T14:37:16.772Z,5.85
2024-02-09T14:40:05.228Z,5.45
2024-02-09T14:42:52.796Z,4.75
2024-02-09T14:45:40.541Z,2.08
2024-02-09T14:48:29.423Z,4.75
2024-02-09T14:51:16.762Z,4.07
2024-02-09T14:54:05.804Z,4.68
2024-02-09T14:56:59.531Z,4.28
2024-02-09T14:59:48.138Z,6.68
2024-02-09T15:02:35.924Z,6.45
2024-02-09T15:05:25.286Z,4.70
2024-02-09T15:08:15.014Z,7.25
2024-02-09T15:11:02.650Z,3.65
2024-02-09T15:13:54.641Z,4.28
2024-02-09T15:16:44.361Z,3.20
2024-02-09T15:19:33.607Z,2.47
2024-02-09T15:22:21.435Z,5.03
2024-02-09T15:25:10.598Z,3.47
2024-02-09T15:28:03.799Z,7.15
2024-02-09T15:30:52.374Z,3.17
2024-02-09T15:33:40.529Z,6.85
2024-02-09T15:36:32.406Z,5.28
2024-02-09T15:39:19.876Z,3.17
2024-02-09T15:42:08.465Z,6.22
2024-02-09T15:44:58.769Z,5.25
2024-02-09T15:47:46.501Z,4.90
2024-02-09T15:50:35.756Z,8.70
2024-02-09T15:53:23.994Z,3.38
2024-02-09T15:56:12.181Z,4.38
2024-02-09T15:59:01.976Z,5.80
2024-02-09T16:01:51.284Z,7.25
2024-02-09T16:04:38.988Z,4.70
2024-02-09T16:07:27.750Z,7.63
2024-02-09T16:10:19.462Z,4.40
2024-02-09T16:13:08.531Z,6.10
2024-02-09T16:15:56.884Z,4.25
2024-02-09T16:18:44.670Z,3.80
2024-02-09T16:21:35.093Z,4.45
2024-02-09T16:24:22.647Z,3.33
2024-02-09T16:27:12.499Z,3.47
2024-02-09T16:30:00.393Z,3.92
2024-02-09T16:32:49.665Z,3.35
2024-02-09T16:35:40.018Z,6.15
2024-02-09T16:38:31.536Z,4.47
2024-02-09T16:41:19.762Z,2.72
2024-02-09T16:44:10.328Z,3.67
2024-02-09T16:46:58.040Z,4.53
2024-02-09T16:49:46.157Z,8.95
2024-02-09T16:52:35.702Z,8.85
2024-02-09T16:55:23.477Z,5.15
2024-02-09T16:58:13.309Z,3.45
2024-02-09T17:01:01.802Z,4.82
2024-02-09T17:03:49.826Z,2.20
2024-02-09T17:06:37.942Z,2.00
2024-02-09T17:09:25.661Z,2.90
2024-02-09T17:12:14.720Z,1.95
2024-02-09T17:15:09.886Z,3.40
2024-02-09T17:17:57.354Z,4.60
2024-02-09T17:20:46.194Z,7.30
2024-02-09T17:23:38.209Z,22.25
2024-02-09T17:26:27.652Z,4.45
2024-02-09T17:29:16.983Z,16.20
2024-02-09T17:32:07.107Z,11.27
2024-02-09T17:34:55.663Z,5.47
2024-02-09T17:37:44.312Z,11.02
2024-02-09T17:40:36.296Z,9.70
2024-02-09T17:43:24.764Z,7.85
2024-02-09T17:46:12.260Z,6.28
2024-02-09T17:49:01.571Z,15.40
2024-02-09T17:51:51.715Z,20.25
2024-02-09T17:54:41.217Z,32.65
2024-02-09T17:57:30.415Z,14.45
2024-02-09T18:00:18.520Z,12.27
2024-02-09T18:03:09.335Z,10.18
2024-02-09T18:05:56.812Z,18.48
2024-02-09T18:08:45.269Z,18.08
2024-02-09T18:11:34.796Z,12.23
2024-02-09T18:14:23.736Z,7.88
2024-02-09T18:17:11.186Z,9.85
2024-02-09T18:19:59.300Z,9.48
2024-02-09T18:22:48.245Z,9.27
2024-02-09T18:25:37.737Z,5.60
2024-02-09T18:28:25.188Z,11.95
2024-02-09T18:31:18.872Z,15.02
2024-02-09T18:34:07.804Z,9.10
2024-02-09T18:36:59.117Z,7.93
2024-02-09T18:39:46.994Z,11.30
2024-02-09T18:42:36.336Z,5.80
2024-02-09T18:45:26.624Z,7.50
2024-02-09T18:48:14.435Z,6.05
2024-02-09T18:51:03.828Z,6.85
2024-02-09T18:53:51.728Z,8.27
2024-02-09T18:56:39.544Z,6.82
2024-02-09T18:59:27.636Z,14.57
2024-02-09T19:02:16.491Z,17.92
2024-02-09T19:05:06.170Z,15.45
2024-02-09T19:07:54.138Z,13.10
2024-02-09T19:10:41.685Z,9.38
2024-02-09T19:13:29.468Z,11.25
2024-02-09T19:16:17.429Z,17.40
2024-02-09T19:19:05.402Z,18.08
2024-02-09T19:21:53.580Z,11.35
2024-02-09T19:24:42.943Z,21.00
2024-02-09T19:27:34.184Z,60.60
2024-02-09T19:30:21.775Z,64.28
2024-02-09T19:33:13.862Z,32.50
2024-02-09T19:36:01.620Z,28.75
2024-02-09T19:38:49.180Z,19.73
2024-02-09T19:41:39.844Z,28.10
2024-02-09T19:44:29.622Z,25.20
2024-02-09T19:47:17.965Z,21.17
2024-02-09T19:50:05.945Z,21.52
2024-02-09T19:52:55.539Z,20.05
2024-02-09T19:55:47.413Z,18.45
2024-02-09T19:58:37.534Z,19.13
2024-02-09T20:01:27.592Z,18.85
2024-02-09T20:04:19.581Z,19.77
2024-02-09T20:07:07.801Z,17.65
2024-02-09T20:09:55.924Z,21.67
2024-02-09T20:12:50.316Z,20.15
2024-02-09T20:15:39.538Z,18.05
2024-02-09T20:18:31.510Z,24.02
2024-02-09T20:21:20.138Z,21.77
2024-02-09T20:24:13.805Z,20.67
2024-02-09T20:27:08.927Z,20.08
2024-02-09T20:30:00.311Z,25.33
2024-02-09T20:32:48.808Z,30.38
2024-02-09T20:35:37.745Z,52.08
2024-02-09T20:38:26.633Z,36.03
2024-02-09T20:41:21.939Z,34.38
2024-02-09T20:44:10.490Z,38.58
2024-02-09T20:47:03.270Z,30.38
2024-02-09T20:49:53.572Z,29.42
2024-02-09T20:52:41.160Z,30.15
2024-02-09T20:55:34.168Z,26.45
2024-02-09T20:58:27.494Z,27.15
2024-02-09T21:01:16.296Z,29.00
2024-02-09T21:04:05.685Z,33.17
2024-02-09T21:06:54.793Z,52.58
2024-02-09T21:09:44.712Z,41.22
2024-02-09T21:12:32.484Z,31.85
2024-02-09T21:15:21.028Z,27.50
2024-02-09T21:18:11.058Z,33.08
2024-02-09T21:21:03.871Z,29.67
2024-02-09T21:23:59.836Z,29.52
2024-02-09T21:26:55.067Z,32.53
2024-02-09T21:29:43.828Z,33.42
2024-02-09T21:32:33.242Z,35.85
2024-02-09T21:35:21.419Z,37.95
2024-02-09T21:38:12.179Z,35.05
2024-02-09T21:41:01.885Z,36.38
2024-02-09T21:43:49.824Z,36.75
2024-02-09T21:46:39.649Z,32.38
2024-02-09T21:49:31.169Z,35.70
2024-02-09T21:52:21.390Z,37.03
2024-02-09T21:55:12.080Z,40.55
2024-02-09T21:58:00.453Z,38.60
2024-02-09T22:00:48.060Z,35.45
2024-02-09T22:03:37.321Z,41.33
2024-02-09T22:06:28.966Z,40.80
2024-02-09T22:09:20.132Z,37.92
2024-02-09T22:12:09.231Z,44.17
2024-02-09T22:15:00.623Z,38.75
2024-02-09T22:18:01.670Z,42.58
2024-02-09T22:20:57.021Z,35.22
2024-02-09T22:23:51.592Z,43.50
2024-02-09T22:26:41.534Z,42.58
2024-02-09T22:29:30.636Z,51.65
2024-02-09T22:32:22.452Z,40.15
2024-02-09T22:35:14.551Z,40.88
2024-02-09T22:38:02.320Z,42.00
2024-02-09T22:40:50.489Z,37.53
2024-02-09T22:43:38.004Z,40.03
2024-02-09T22:46:27.340Z,32.63
2024-02-09T22:49:19.034Z,29.50
2024-02-09T22:52:14.995Z,37.33
2024-02-09T22:55:02.811Z,29.65
2024-02-09T22:57:50.772Z,36.33
2024-02-09T23:00:38.271Z,32.25
2024-02-09T23:03:26.863Z,33.08
2024-02-09T23:06:15.187Z,33.92
2024-02-09T23:09:04.843Z,43.30
2024-02-09T23:11:52.606Z,53.58
2024-02-09T23:14:40.502Z,56.42
2024-02-09T23:17:29.987Z,60.70
2024-02-09T23:20:22.080Z,65.57
2024-02-09T23:23:14.277Z,70.75
2024-02-09T23:26:01.758Z,52.40
2024-02-09T23:28:50.665Z,81.03
2024-02-09T23:31:39.157Z,69.50
2024-02-09T23:34:30.859Z,72.72
2024-02-09T23:37:20.452Z,65.55
2024-02-09T23:40:09.310Z,69.60
2024-02-09T23:43:00.796Z,70.38
2024-02-09T23:45:50.654Z,59.83
2024-02-09T23:48:40.471Z,63.17
2024-02-09T23:51:28.194Z,84.45
2024-02-09T23:54:16.407Z,90.68
2024-02-09T23:57:03.951Z,90.70
2024-02-09T23:59:51.496Z,86.07
